Time;durP1;ratioP1;P1;durP2;ratioP2;P2;SDS_P1;SDS_P2;PMS_P1;PMS_P2;Temp;Humidity;BMP_temperature;BMP_pressure;BME280_temperature;BME280_humidity;BME280_pressure;Samples;Min_cycle;Max_cycle;Signal;HPM_P1;HPM_P2
2021/08/18 00:00:26;;;;;;;10.33;6.13;;;;;;;;;;754401;183;918837;-59
2021/08/18 00:02:52;;;;;;;9.40;6.70;;;;;;;;;;754669;181;919699;-60
2021/08/18 00:05:18;;;;;;;11.20;7.60;;;;;;;;;;761010;182;919978;-59
2021/08/18 00:07:44;;;;;;;14.50;6.73;;;;;;;;;;756965;183;919207;-60
2021/08/18 00:10:09;;;;;;;13.63;7.90;;;;;;;;;;754868;183;927065;-59
2021/08/18 00:12:35;;;;;;;16.20;9.20;;;;;;;;;;759749;184;919923;-60
2021/08/18 00:15:01;;;;;;;12.97;8.53;;;;;;;;;;752878;183;947502;-59
2021/08/18 00:17:27;;;;;;;13.73;7.60;;;;;;;;;;754335;183;918927;-60
2021/08/18 00:19:53;;;;;;;12.85;8.43;;;;;;;;;;753805;184;918873;-59
2021/08/18 00:22:19;;;;;;;13.53;7.77;;;;;;;;;;754224;182;919837;-59
2021/08/18 00:24:44;;;;;;;14.77;9.50;;;;;;;;;;758298;184;639154;-59
2021/08/18 00:27:10;;;;;;;12.33;8.60;;;;;;;;;;755474;184;944018;-59
2021/08/18 00:29:36;;;;;;;10.97;7.50;;;;;;;;;;760970;184;914752;-59
2021/08/18 00:32:02;;;;;;;19.70;8.40;;;;;;;;;;754188;184;921725;-59
2021/08/18 00:34:28;;;;;;;12.23;7.70;;;;;;;;;;755673;184;920219;-59
2021/08/18 00:36:54;;;;;;;13.53;8.47;;;;;;;;;;759094;184;923191;-59
2021/08/18 00:39:20;;;;;;;15.67;7.87;;;;;;;;;;755976;184;917561;-59
2021/08/18 00:41:46;;;;;;;12.10;7.23;;;;;;;;;;755260;184;927773;-59
2021/08/18 00:44:12;;;;;;;12.68;7.15;;;;;;;;;;755093;184;920343;-59
2021/08/18 00:46:40;;;;;;;15.10;6.90;;;;;;;;;;761900;181;919631;-60
2021/08/18 00:49:06;;;;;;;13.60;8.23;;;;;;;;;;755031;184;920596;-59
2021/08/18 00:51:32;;;;;;;10.60;7.00;;;;;;;;;;754200;184;919019;-60
2021/08/18 00:53:57;;;;;;;15.90;7.80;;;;;;;;;;758196;184;920992;-59
2021/08/18 00:56:23;;;;;;;12.47;7.77;;;;;;;;;;756452;184;911138;-59
2021/08/18 00:58:49;;;;;;;14.90;6.30;;;;;;;;;;756696;184;919618;-59
2021/08/18 01:01:15;;;;;;;10.48;6.32;;;;;;;;;;760817;183;919278;-59
2021/08/18 01:03:41;;;;;;;15.50;7.70;;;;;;;;;;754619;183;1020417;-60
2021/08/18 01:06:07;;;;;;;9.60;6.57;;;;;;;;;;758969;182;918471;-59
2021/08/18 01:08:34;;;;;;;9.93;5.72;;;;;;;;;;757364;181;921939;-60
2021/08/18 01:10:59;;;;;;;10.43;6.03;;;;;;;;;;753593;182;920152;-60
2021/08/18 01:13:24;;;;;;;9.70;5.40;;;;;;;;;;754762;182;916629;-59
2021/08/18 01:15:50;;;;;;;11.30;7.20;;;;;;;;;;753839;184;912276;-59
2021/08/18 01:18:16;;;;;;;10.30;5.93;;;;;;;;;;759928;181;914552;-59
2021/08/18 01:20:42;;;;;;;11.80;6.47;;;;;;;;;;756630;182;993615;-59
2021/08/18 01:23:08;;;;;;;11.53;6.40;;;;;;;;;;755068;184;916756;-59
2021/08/18 01:25:34;;;;;;;8.50;5.60;;;;;;;;;;759485;183;1013619;-60
2021/08/18 01:28:00;;;;;;;13.70;7.10;;;;;;;;;;755394;182;915618;-59
2021/08/18 01:30:26;;;;;;;13.50;9.10;;;;;;;;;;755559;183;915254;-59
2021/08/18 01:32:53;;;;;;;11.32;5.85;;;;;;;;;;760527;184;916540;-59
2021/08/18 01:35:22;;;;;;;10.80;6.97;;;;;;;;;;759007;184;920052;-59
2021/08/18 01:37:48;;;;;;;12.00;6.60;;;;;;;;;;753463;181;919758;-59
2021/08/18 01:40:14;;;;;;;8.97;6.40;;;;;;;;;;752500;184;919159;-59
2021/08/18 01:42:40;;;;;;;12.30;6.67;;;;;;;;;;759213;184;919976;-59
2021/08/18 01:45:06;;;;;;;9.17;5.83;;;;;;;;;;754899;183;919897;-59
2021/08/18 01:47:32;;;;;;;10.37;6.20;;;;;;;;;;755826;184;920420;-59
2021/08/18 01:49:58;;;;;;;9.87;5.70;;;;;;;;;;759318;182;958781;-60
2021/08/18 01:52:24;;;;;;;9.73;7.20;;;;;;;;;;752136;184;919809;-59
2021/08/18 01:54:50;;;;;;;8.00;5.60;;;;;;;;;;755485;183;919099;-59
2021/08/18 01:57:16;;;;;;;12.00;6.60;;;;;;;;;;754770;184;918829;-59
2021/08/18 01:59:41;;;;;;;11.13;7.00;;;;;;;;;;759512;184;919899;-59
2021/08/18 02:02:07;;;;;;;10.85;6.50;;;;;;;;;;753305;184;920380;-59
2021/08/18 02:04:35;;;;;;;17.13;7.57;;;;;;;;;;754602;184;919326;-59
2021/08/18 02:06:59;;;;;;;13.60;6.47;;;;;;;;;;759364;182;918789;-59
2021/08/18 02:09:25;;;;;;;14.70;8.13;;;;;;;;;;757760;181;920052;-59
2021/08/18 02:11:51;;;;;;;16.17;8.40;;;;;;;;;;756977;180;920148;-59
2021/08/18 02:14:16;;;;;;;14.80;6.77;;;;;;;;;;760713;183;919769;-61
2021/08/18 02:16:42;;;;;;;11.77;7.20;;;;;;;;;;756859;181;919415;-59
2021/08/18 02:19:08;;;;;;;14.90;7.20;;;;;;;;;;754723;184;920087;-60
2021/08/18 02:21:34;;;;;;;11.00;6.30;;;;;;;;;;758154;183;918835;-59
2021/08/18 02:24:00;;;;;;;10.67;7.57;;;;;;;;;;763494;181;918938;-60
2021/08/18 02:26:26;;;;;;;12.67;7.03;;;;;;;;;;753716;183;920474;-59
2021/08/18 02:28:52;;;;;;;12.23;7.13;;;;;;;;;;754369;184;919752;-59
2021/08/18 02:31:18;;;;;;;8.57;5.40;;;;;;;;;;760616;183;938508;-59
2021/08/18 02:33:44;;;;;;;8.03;5.93;;;;;;;;;;755559;182;919925;-59
2021/08/18 02:36:09;;;;;;;9.43;6.40;;;;;;;;;;756709;181;919492;-59
2021/08/18 02:38:35;;;;;;;10.70;7.30;;;;;;;;;;760606;183;919657;-59
2021/08/18 02:41:01;;;;;;;12.40;7.27;;;;;;;;;;755073;183;921779;-60
2021/08/18 02:43:27;;;;;;;11.23;6.97;;;;;;;;;;754078;184;919398;-59
2021/08/18 02:45:53;;;;;;;9.10;6.10;;;;;;;;;;758575;184;918554;-59
2021/08/18 02:48:19;;;;;;;10.63;6.77;;;;;;;;;;754429;184;920065;-59
2021/08/18 02:50:44;;;;;;;10.17;5.77;;;;;;;;;;754045;184;917632;-59
2021/08/18 02:53:10;;;;;;;10.38;6.80;;;;;;;;;;753878;184;920036;-59
2021/08/18 02:55:36;;;;;;;13.90;7.37;;;;;;;;;;760259;184;906460;-59
2021/08/18 02:58:02;;;;;;;12.50;6.40;;;;;;;;;;748389;184;2044607;-59
2021/08/18 03:00:28;;;;;;;14.63;7.23;;;;;;;;;;753655;183;920456;-59
2021/08/18 03:02:54;;;;;;;11.37;6.70;;;;;;;;;;759083;184;919846;-60
2021/08/18 03:05:19;;;;;;;11.87;6.83;;;;;;;;;;755736;184;924910;-59
2021/08/18 03:07:45;;;;;;;11.57;6.97;;;;;;;;;;756131;184;918973;-59
2021/08/18 03:10:11;;;;;;;11.90;8.77;;;;;;;;;;758517;184;919252;-59
2021/08/18 03:12:37;;;;;;;9.70;6.70;;;;;;;;;;752717;182;918794;-59
2021/08/18 03:15:03;;;;;;;10.20;6.67;;;;;;;;;;753570;184;920130;-59
2021/08/18 03:17:29;;;;;;;14.47;7.70;;;;;;;;;;755917;182;914003;-59
2021/08/18 03:19:55;;;;;;;16.43;8.50;;;;;;;;;;754830;181;916317;-59
2021/08/18 03:22:20;;;;;;;11.27;7.23;;;;;;;;;;756539;183;916240;-59
2021/08/18 03:24:46;;;;;;;12.20;7.37;;;;;;;;;;758012;183;919542;-59
2021/08/18 03:27:12;;;;;;;11.90;7.80;;;;;;;;;;762338;181;919391;-59
2021/08/18 03:29:38;;;;;;;13.63;6.57;;;;;;;;;;757512;181;919048;-59
2021/08/18 03:32:05;;;;;;;14.33;7.60;;;;;;;;;;757195;183;918031;-59
2021/08/18 03:34:31;;;;;;;17.60;8.10;;;;;;;;;;756405;183;1740413;-60
2021/08/18 03:36:57;;;;;;;21.73;7.00;;;;;;;;;;755635;183;917952;-59
2021/08/18 03:39:22;;;;;;;12.33;7.17;;;;;;;;;;755265;185;919652;-59
2021/08/18 03:41:48;;;;;;;10.10;7.30;;;;;;;;;;754353;184;917973;-59
2021/08/18 03:44:14;;;;;;;13.03;8.60;;;;;;;;;;755476;183;919795;-59
2021/08/18 03:46:40;;;;;;;13.10;8.20;;;;;;;;;;754486;183;919234;-59
2021/08/18 03:49:06;;;;;;;12.83;7.60;;;;;;;;;;752475;184;918022;-59
2021/08/18 03:51:32;;;;;;;15.67;7.17;;;;;;;;;;759538;183;924149;-59
2021/08/18 03:53:58;;;;;;;12.40;7.60;;;;;;;;;;754883;183;920371;-59
2021/08/18 03:56:24;;;;;;;13.87;8.00;;;;;;;;;;753007;184;1021733;-59
2021/08/18 03:58:50;;;;;;;15.20;7.80;;;;;;;;;;759483;184;891256;-59
2021/08/18 04:01:15;;;;;;;18.63;8.20;;;;;;;;;;754869;181;919075;-59
2021/08/18 04:03:41;;;;;;;13.63;9.07;;;;;;;;;;753959;184;920257;-59
2021/08/18 04:06:07;;;;;;;13.13;8.77;;;;;;;;;;758756;184;918840;-59
2021/08/18 04:08:34;;;;;;;22.93;8.90;;;;;;;;;;752930;184;919663;-59
2021/08/18 04:10:59;;;;;;;15.67;9.23;;;;;;;;;;751392;184;1348742;-59
2021/08/18 04:13:25;;;;;;;15.47;8.30;;;;;;;;;;754344;184;919421;-59
2021/08/18 04:15:51;;;;;;;13.27;9.23;;;;;;;;;;758570;184;919410;-59
2021/08/18 04:18:16;;;;;;;15.63;9.40;;;;;;;;;;753882;184;919422;-59
2021/08/18 04:20:42;;;;;;;13.47;7.73;;;;;;;;;;755332;184;919854;-61
2021/08/18 04:23:08;;;;;;;12.00;7.50;;;;;;;;;;760059;184;920568;-60
2021/08/18 04:25:34;;;;;;;11.77;7.90;;;;;;;;;;754198;184;919705;-62
2021/08/18 04:28:00;;;;;;;17.07;8.57;;;;;;;;;;754229;184;922238;-60
2021/08/18 04:30:26;;;;;;;11.73;7.23;;;;;;;;;;759247;184;920925;-60
2021/08/18 04:32:52;;;;;;;15.83;8.47;;;;;;;;;;755118;181;939499;-59
2021/08/18 04:35:17;;;;;;;13.80;8.20;;;;;;;;;;754375;183;919143;-59
2021/08/18 04:37:43;;;;;;;11.60;7.93;;;;;;;;;;754421;181;918606;-59
2021/08/18 04:40:09;;;;;;;13.77;8.30;;;;;;;;;;760489;184;917556;-60
2021/08/18 04:42:35;;;;;;;12.43;7.90;;;;;;;;;;756380;183;919272;-59
2021/08/18 04:45:01;;;;;;;17.35;8.38;;;;;;;;;;753854;184;923885;-59
2021/08/18 04:47:27;;;;;;;17.37;9.13;;;;;;;;;;761615;183;919609;-59
2021/08/18 04:49:53;;;;;;;12.20;7.70;;;;;;;;;;757190;181;918841;-58
2021/08/18 04:52:19;;;;;;;11.80;8.80;;;;;;;;;;754783;182;920303;-58
2021/08/18 04:54:44;;;;;;;14.87;8.20;;;;;;;;;;759858;183;918313;-58
2021/08/18 04:57:10;;;;;;;15.17;7.60;;;;;;;;;;754200;183;920178;-58
2021/08/18 04:59:36;;;;;;;15.90;9.07;;;;;;;;;;753364;183;919850;-58
2021/08/18 05:02:02;;;;;;;18.00;11.67;;;;;;;;;;748954;181;913943;-59
2021/08/18 05:04:28;;;;;;;17.33;8.90;;;;;;;;;;753477;183;920068;-59
2021/08/18 05:06:54;;;;;;;13.30;8.80;;;;;;;;;;754612;183;922099;-59
2021/08/18 05:09:20;;;;;;;15.65;8.38;;;;;;;;;;752872;181;919477;-59
2021/08/18 05:11:45;;;;;;;17.20;8.73;;;;;;;;;;758464;184;920114;-59
2021/08/18 05:14:11;;;;;;;16.53;9.23;;;;;;;;;;754896;184;918848;-59
2021/08/18 05:16:37;;;;;;;12.90;8.63;;;;;;;;;;752990;184;921447;-61
2021/08/18 05:19:03;;;;;;;15.37;9.30;;;;;;;;;;758892;182;918927;-61
2021/08/18 05:21:29;;;;;;;19.50;8.37;;;;;;;;;;754565;182;920531;-64
2021/08/18 05:23:55;;;;;;;16.70;9.80;;;;;;;;;;753423;181;1022710;-60
2021/08/18 05:26:21;;;;;;;18.47;9.30;;;;;;;;;;758135;184;918808;-59
2021/08/18 05:28:48;;;;;;;14.03;7.87;;;;;;;;;;752010;184;1020114;-59
2021/08/18 05:31:15;;;;;;;27.03;9.00;;;;;;;;;;756917;182;916851;-60
2021/08/18 05:33:41;;;;;;;18.07;8.60;;;;;;;;;;753029;184;909900;-59
2021/08/18 05:36:07;;;;;;;19.43;9.43;;;;;;;;;;759048;184;921133;-59
2021/08/18 05:38:33;;;;;;;16.07;8.97;;;;;;;;;;756073;183;920140;-59
2021/08/18 05:40:59;;;;;;;15.97;9.80;;;;;;;;;;756195;182;922382;-59
2021/08/18 05:43:25;;;;;;;22.40;9.10;;;;;;;;;;758940;184;919256;-59
2021/08/18 05:45:50;;;;;;;11.37;7.97;;;;;;;;;;756547;180;920150;-60
2021/08/18 05:48:16;;;;;;;16.73;10.20;;;;;;;;;;755695;183;922296;-59
2021/08/18 05:50:44;;;;;;;16.55;8.65;;;;;;;;;;759006;183;912931;-59
2021/08/18 05:53:15;;;;;;;25.90;10.90;;;;;;;;;;763333;180;915427;-59
2021/08/18 05:55:35;;;;;;;17.83;9.23;;;;;;;;;;753114;184;914304;-59
2021/08/18 05:58:01;;;;;;;17.40;10.27;;;;;;;;;;754852;183;916251;-60
2021/08/18 06:00:27;;;;;;;20.02;9.15;;;;;;;;;;760300;184;916369;-59
2021/08/18 06:02:53;;;;;;;16.67;8.03;;;;;;;;;;754192;183;1018851;-59
2021/08/18 06:05:19;;;;;;;13.57;8.20;;;;;;;;;;754675;183;1018594;-60
2021/08/18 06:07:45;;;;;;;12.13;7.43;;;;;;;;;;760615;183;915368;-59
2021/08/18 06:10:10;;;;;;;11.23;7.70;;;;;;;;;;744146;185;919247;-59
2021/08/18 06:12:36;;;;;;;18.20;8.25;;;;;;;;;;753564;183;941524;-60
2021/08/18 06:15:02;;;;;;;12.67;7.57;;;;;;;;;;758657;181;918833;-59
2021/08/18 06:17:28;;;;;;;11.13;7.70;;;;;;;;;;743905;183;920303;-59
2021/08/18 06:19:55;;;;;;;15.77;7.90;;;;;;;;;;757467;180;921484;-60
2021/08/18 06:22:21;;;;;;;16.23;7.03;;;;;;;;;;754527;182;925132;-60
2021/08/18 06:24:50;;;;;;;18.07;9.60;;;;;;;;;;758969;184;918816;-60
2021/08/18 06:27:14;;;;;;;12.87;8.33;;;;;;;;;;756295;184;918586;-60
2021/08/18 06:29:40;;;;;;;16.07;9.27;;;;;;;;;;753991;184;920604;-60
2021/08/18 06:32:06;;;;;;;13.80;7.67;;;;;;;;;;757325;184;1058697;-60
2021/08/18 06:34:32;;;;;;;11.70;7.53;;;;;;;;;;754739;184;919121;-60
2021/08/18 06:37:01;;;;;;;13.53;7.50;;;;;;;;;;756867;184;919951;-60
2021/08/18 06:39:24;;;;;;;12.53;8.60;;;;;;;;;;755725;182;919009;-61
2021/08/18 06:41:50;;;;;;;15.43;8.10;;;;;;;;;;756737;184;626299;-60
2021/08/18 06:44:17;;;;;;;11.57;7.13;;;;;;;;;;755600;184;966960;-60
2021/08/18 06:46:42;;;;;;;12.15;7.78;;;;;;;;;;752334;184;943520;-60
2021/08/18 06:49:08;;;;;;;14.67;8.10;;;;;;;;;;759795;184;919934;-60
2021/08/18 06:51:33;;;;;;;14.47;7.57;;;;;;;;;;754625;184;918654;-60
2021/08/18 06:53:59;;;;;;;13.95;7.55;;;;;;;;;;755188;181;917545;-60
2021/08/18 06:56:25;;;;;;;15.70;7.90;;;;;;;;;;761915;183;915612;-60
2021/08/18 06:58:51;;;;;;;13.13;7.43;;;;;;;;;;756032;183;914851;-60
2021/08/18 07:01:17;;;;;;;20.93;7.40;;;;;;;;;;756330;181;916734;-60
2021/08/18 07:03:43;;;;;;;15.33;8.00;;;;;;;;;;759848;183;919673;-62
2021/08/18 07:06:09;;;;;;;14.20;8.00;;;;;;;;;;754309;183;914164;-61
2021/08/18 07:08:35;;;;;;;12.17;7.53;;;;;;;;;;756014;183;918592;-60
2021/08/18 07:11:01;;;;;;;27.07;8.23;;;;;;;;;;757228;183;743415;-62
2021/08/18 07:13:27;;;;;;;18.17;7.70;;;;;;;;;;763409;183;633745;-61
2021/08/18 07:15:54;;;;;;;11.83;7.20;;;;;;;;;;761024;183;624577;-61
2021/08/18 07:18:22;;;;;;;19.33;8.40;;;;;;;;;;759435;182;618518;-59
2021/08/18 07:20:47;;;;;;;11.93;7.70;;;;;;;;;;760138;183;918176;-61
2021/08/18 07:23:13;;;;;;;13.70;8.03;;;;;;;;;;755329;184;920078;-61
2021/08/18 07:25:39;;;;;;;12.40;8.10;;;;;;;;;;755019;183;918620;-61
2021/08/18 07:28:05;;;;;;;15.07;7.45;;;;;;;;;;754024;184;919872;-60
2021/08/18 07:30:31;;;;;;;12.33;6.87;;;;;;;;;;754283;184;918895;-61
2021/08/18 07:32:57;;;;;;;11.60;7.10;;;;;;;;;;752499;184;919456;-60
2021/08/18 07:35:22;;;;;;;13.10;7.80;;;;;;;;;;753133;184;920176;-60
2021/08/18 07:37:50;;;;;;;9.50;5.93;;;;;;;;;;758615;183;917479;-61
2021/08/18 07:40:14;;;;;;;13.27;7.33;;;;;;;;;;753848;184;941979;-61
2021/08/18 07:42:40;;;;;;;11.83;7.53;;;;;;;;;;753962;184;919649;-61
2021/08/18 07:45:06;;;;;;;11.80;7.43;;;;;;;;;;758201;184;904605;-60
2021/08/18 07:47:32;;;;;;;11.53;7.17;;;;;;;;;;755730;184;918826;-59
2021/08/18 07:49:58;;;;;;;13.43;7.10;;;;;;;;;;753965;184;942960;-61
2021/08/18 07:52:24;;;;;;;13.17;6.23;;;;;;;;;;753653;184;1737973;-61
2021/08/18 07:54:49;;;;;;;10.90;7.07;;;;;;;;;;752460;184;919616;-62
2021/08/18 07:57:15;;;;;;;11.40;7.30;;;;;;;;;;754350;184;930651;-61
2021/08/18 07:59:41;;;;;;;15.30;6.80;;;;;;;;;;753122;184;920131;-60
2021/08/18 08:02:07;;;;;;;11.87;6.90;;;;;;;;;;760940;184;919345;-61
2021/08/18 08:04:33;;;;;;;10.20;6.30;;;;;;;;;;754556;183;919027;-61
2021/08/18 08:06:59;;;;;;;10.87;6.10;;;;;;;;;;759692;182;637119;-61
2021/08/18 08:09:25;;;;;;;11.47;6.70;;;;;;;;;;762359;183;895876;-61
2021/08/18 08:11:50;;;;;;;13.03;6.60;;;;;;;;;;758063;184;922409;-59
2021/08/18 08:14:17;;;;;;;10.90;7.37;;;;;;;;;;756516;183;917757;-61
2021/08/18 08:16:43;;;;;;;12.27;7.70;;;;;;;;;;760360;183;916342;-61
2021/08/18 08:19:10;;;;;;;13.13;6.97;;;;;;;;;;757234;183;919669;-61
2021/08/18 08:21:36;;;;;;;13.93;6.50;;;;;;;;;;752845;184;918895;-61
2021/08/18 08:24:02;;;;;;;11.13;6.43;;;;;;;;;;753778;182;919717;-61
2021/08/18 08:26:28;;;;;;;13.07;7.07;;;;;;;;;;759813;181;916379;-61
2021/08/18 08:28:54;;;;;;;11.63;6.60;;;;;;;;;;755823;184;917464;-61
2021/08/18 08:31:20;;;;;;;15.20;6.63;;;;;;;;;;754149;184;916138;-60
2021/08/18 08:33:46;;;;;;;11.70;7.70;;;;;;;;;;759526;183;915527;-62
2021/08/18 08:36:13;;;;;;;11.27;7.07;;;;;;;;;;753653;183;915612;-61
2021/08/18 08:38:38;;;;;;;9.52;6.80;;;;;;;;;;754486;183;914703;-61
2021/08/18 08:41:04;;;;;;;14.23;8.03;;;;;;;;;;758882;183;918730;-65
2021/08/18 08:43:30;;;;;;;11.17;7.07;;;;;;;;;;746158;181;919197;-63
2021/08/18 08:45:56;;;;;;;12.47;7.10;;;;;;;;;;748607;182;919236;-63
2021/08/18 08:48:22;;;;;;;13.62;7.50;;;;;;;;;;754074;183;918549;-61
2021/08/18 08:50:48;;;;;;;9.77;6.23;;;;;;;;;;760671;182;919519;-62
2021/08/18 08:53:13;;;;;;;10.57;7.00;;;;;;;;;;753054;184;919517;-62
2021/08/18 08:55:40;;;;;;;11.23;7.10;;;;;;;;;;755755;184;920036;-62
2021/08/18 08:58:06;;;;;;;9.67;7.07;;;;;;;;;;759776;183;919694;-62
2021/08/18 09:00:32;;;;;;;11.07;6.90;;;;;;;;;;754687;184;919112;-63
2021/08/18 09:03:20;;;;;;;14.10;7.57;;;;;;;;;;754351;184;919156;-62
2021/08/18 09:05:44;;;;;;;11.53;6.80;;;;;;;;;;755114;184;918416;-63
2021/08/18 09:08:11;;;;;;;13.70;7.57;;;;;;;;;;753714;184;918990;-62
2021/08/18 09:10:37;;;;;;;11.60;7.77;;;;;;;;;;757510;180;919432;-61
2021/08/18 09:13:08;;;;;;;12.00;7.30;;;;;;;;;;753423;183;921205;-62
2021/08/18 09:15:34;;;;;;;14.27;7.23;;;;;;;;;;755109;184;920852;-63
2021/08/18 09:18:00;;;;;;;11.00;6.90;;;;;;;;;;758650;184;919819;-63
2021/08/18 09:20:29;;;;;;;15.10;7.20;;;;;;;;;;756719;183;919542;-63
2021/08/18 09:22:52;;;;;;;11.67;6.97;;;;;;;;;;755358;181;918358;-63
2021/08/18 09:25:19;;;;;;;12.77;7.50;;;;;;;;;;754730;183;920019;-63
2021/08/18 09:27:44;;;;;;;11.60;6.50;;;;;;;;;;758444;183;918761;-63
2021/08/18 09:30:17;;;;;;;12.23;7.27;;;;;;;;;;755476;183;919438;-63
2021/08/18 09:32:42;;;;;;;12.05;6.57;;;;;;;;;;754028;182;919289;-62
2021/08/18 09:35:08;;;;;;;12.00;7.80;;;;;;;;;;759068;183;920042;-63
2021/08/18 09:37:34;;;;;;;12.13;6.73;;;;;;;;;;756440;183;919322;-64
2021/08/18 09:40:00;;;;;;;12.67;7.90;;;;;;;;;;754287;183;919752;-63
2021/08/18 09:42:26;;;;;;;9.17;5.40;;;;;;;;;;754187;185;919168;-61
2021/08/18 09:44:52;;;;;;;8.63;5.97;;;;;;;;;;753834;183;918945;-63
2021/08/18 09:47:17;;;;;;;11.10;7.30;;;;;;;;;;752997;183;920228;-63
2021/08/18 09:49:43;;;;;;;11.80;5.87;;;;;;;;;;757987;183;920645;-63
2021/08/18 09:52:11;;;;;;;8.93;5.67;;;;;;;;;;759517;183;919051;-63
2021/08/18 09:54:35;;;;;;;11.50;6.40;;;;;;;;;;756328;183;919257;-63
2021/08/18 09:57:01;;;;;;;8.93;5.50;;;;;;;;;;753810;184;919720;-63
2021/08/18 09:59:27;;;;;;;13.80;7.47;;;;;;;;;;759459;184;918962;-62
2021/08/18 10:01:52;;;;;;;14.23;7.13;;;;;;;;;;755345;184;920926;-63
2021/08/18 10:04:18;;;;;;;17.97;6.77;;;;;;;;;;755503;184;919630;-62
2021/08/18 10:06:44;;;;;;;11.80;6.10;;;;;;;;;;760679;184;912493;-63
2021/08/18 10:09:10;;;;;;;10.03;6.70;;;;;;;;;;753863;184;919019;-63
2021/08/18 10:11:36;;;;;;;10.27;5.83;;;;;;;;;;754715;181;917749;-61
2021/08/18 10:14:02;;;;;;;10.67;6.60;;;;;;;;;;752724;184;919708;-63
2021/08/18 10:16:31;;;;;;;10.30;6.62;;;;;;;;;;760177;184;918912;-63
2021/08/18 10:18:55;;;;;;;8.23;5.60;;;;;;;;;;754216;184;920167;-62
2021/08/18 10:21:19;;;;;;;10.87;6.13;;;;;;;;;;752295;184;918851;-63
2021/08/18 10:23:46;;;;;;;9.83;5.97;;;;;;;;;;759128;184;921883;-63
2021/08/18 10:26:18;;;;;;;16.70;7.00;;;;;;;;;;757014;184;961582;-62
2021/08/18 10:28:50;;;;;;;8.97;6.00;;;;;;;;;;754153;184;919186;-62
2021/08/18 10:31:15;;;;;;;9.53;5.33;;;;;;;;;;756997;183;919035;-62
2021/08/18 10:33:47;;;;;;;10.17;5.60;;;;;;;;;;760752;180;918906;-61
2021/08/18 10:36:13;;;;;;;14.10;5.97;;;;;;;;;;753717;182;918512;-63
2021/08/18 10:38:39;;;;;;;9.80;6.33;;;;;;;;;;754525;183;919165;-62
2021/08/18 10:41:04;;;;;;;10.47;6.97;;;;;;;;;;754530;183;919532;-64
2021/08/18 10:43:36;;;;;;;12.53;7.30;;;;;;;;;;765136;183;918978;-64
2021/08/18 10:46:02;;;;;;;25.60;17.20;;;;;;;;;;757059;181;919078;-63
2021/08/18 10:48:46;;;;;;;20.67;14.97;;;;;;;;;;754807;183;919665;-63
2021/08/18 10:51:12;;;;;;;9.33;6.30;;;;;;;;;;752881;183;919480;-62
2021/08/18 10:53:38;;;;;;;8.68;5.50;;;;;;;;;;752974;184;920449;-62
2021/08/18 10:56:10;;;;;;;11.80;5.80;;;;;;;;;;749802;183;919020;-63
2021/08/18 10:58:37;;;;;;;14.20;6.60;;;;;;;;;;754844;183;919868;-64
2021/08/18 11:01:03;;;;;;;9.13;6.73;;;;;;;;;;754232;184;921532;-63
2021/08/18 11:03:31;;;;;;;15.00;6.07;;;;;;;;;;760010;184;919065;-64
2021/08/18 11:05:58;;;;;;;10.07;6.30;;;;;;;;;;755265;183;920559;-63
2021/08/18 11:08:27;;;;;;;8.90;6.00;;;;;;;;;;755278;184;1032954;-63
2021/08/18 11:11:07;;;;;;;7.80;5.33;;;;;;;;;;754329;184;918708;-64
2021/08/18 11:13:38;;;;;;;15.53;8.27;;;;;;;;;;753891;184;921792;-63
2021/08/18 11:16:05;;;;;;;10.63;7.40;;;;;;;;;;759072;184;918328;-63
2021/08/18 11:18:31;;;;;;;8.83;5.33;;;;;;;;;;755538;184;920364;-62
2021/08/18 11:20:57;;;;;;;11.87;6.37;;;;;;;;;;754747;184;935724;-63
2021/08/18 11:23:22;;;;;;;9.30;6.70;;;;;;;;;;758886;184;922255;-63
2021/08/18 11:25:48;;;;;;;11.20;5.77;;;;;;;;;;753344;184;919416;-65
2021/08/18 11:28:20;;;;;;;11.83;5.57;;;;;;;;;;753329;184;920571;-63
2021/08/18 11:30:46;;;;;;;9.38;5.65;;;;;;;;;;753410;184;917962;-62
2021/08/18 11:33:18;;;;;;;12.70;5.40;;;;;;;;;;761162;184;619348;-63
2021/08/18 11:35:44;;;;;;;20.03;6.43;;;;;;;;;;759019;184;908833;-62
2021/08/18 11:38:09;;;;;;;8.37;4.97;;;;;;;;;;752373;184;918905;-63
2021/08/18 11:40:35;;;;;;;7.90;5.83;;;;;;;;;;753225;184;916327;-62
2021/08/18 11:43:01;;;;;;;9.98;6.05;;;;;;;;;;761213;183;919088;-61
2021/08/18 11:45:27;;;;;;;11.30;6.30;;;;;;;;;;758504;183;923690;-62
2021/08/18 11:47:59;;;;;;;9.95;5.65;;;;;;;;;;755732;184;918913;-63
2021/08/18 11:50:25;;;;;;;11.18;6.28;;;;;;;;;;759011;183;939301;-62
2021/08/18 11:52:52;;;;;;;9.63;5.77;;;;;;;;;;756343;181;918536;-63
2021/08/18 11:55:16;;;;;;;9.70;5.50;;;;;;;;;;759251;183;624554;-63
2021/08/18 11:57:42;;;;;;;7.87;4.90;;;;;;;;;;759949;181;665831;-65
2021/08/18 12:00:09;;;;;;;8.57;5.30;;;;;;;;;;761925;184;631184;-63
2021/08/18 12:02:35;;;;;;;9.07;5.87;;;;;;;;;;755731;183;916249;-62
2021/08/18 12:05:01;;;;;;;9.55;5.40;;;;;;;;;;755177;184;917746;-63
2021/08/18 12:07:27;;;;;;;9.00;4.10;;;;;;;;;;759701;183;916376;-62
2021/08/18 12:09:59;;;;;;;7.17;4.03;;;;;;;;;;756947;183;919206;-62
2021/08/18 12:12:26;;;;;;;9.70;5.67;;;;;;;;;;755181;183;919206;-63
2021/08/18 12:14:51;;;;;;;7.70;5.13;;;;;;;;;;755280;183;918203;-63
2021/08/18 12:17:16;;;;;;;6.33;4.13;;;;;;;;;;760463;183;919568;-63
2021/08/18 12:19:42;;;;;;;8.43;4.13;;;;;;;;;;759355;184;622548;-63
2021/08/18 12:22:10;;;;;;;8.53;4.50;;;;;;;;;;754974;184;919300;-63
2021/08/18 12:24:35;;;;;;;7.35;4.53;;;;;;;;;;757664;184;919118;-62
2021/08/18 12:27:00;;;;;;;8.70;5.23;;;;;;;;;;753870;182;916557;-62
2021/08/18 12:29:27;;;;;;;6.90;4.43;;;;;;;;;;753964;184;919431;-61
2021/08/18 12:31:55;;;;;;;6.53;4.50;;;;;;;;;;756349;184;918906;-61
2021/08/18 12:34:27;;;;;;;7.33;4.60;;;;;;;;;;759600;183;919230;-63
2021/08/18 12:36:53;;;;;;;7.93;5.40;;;;;;;;;;753374;184;920166;-63
2021/08/18 12:39:18;;;;;;;18.43;12.80;;;;;;;;;;753010;184;921125;-64
2021/08/18 12:41:44;;;;;;;6.80;4.83;;;;;;;;;;758172;184;918997;-63
2021/08/18 12:44:11;;;;;;;10.60;4.83;;;;;;;;;;754114;184;918518;-63
2021/08/18 12:46:36;;;;;;;8.40;4.83;;;;;;;;;;754631;184;919316;-63
2021/08/18 12:49:08;;;;;;;6.80;4.60;;;;;;;;;;754027;181;919037;-62
2021/08/18 12:51:34;;;;;;;7.17;4.10;;;;;;;;;;760462;183;919585;-62
2021/08/18 12:53:59;;;;;;;6.60;4.07;;;;;;;;;;755238;184;919307;-62
2021/08/18 12:56:25;;;;;;;8.30;4.27;;;;;;;;;;756150;182;921859;-66
2021/08/18 12:58:51;;;;;;;5.90;3.97;;;;;;;;;;761214;183;918175;-64
2021/08/18 13:01:17;;;;;;;5.93;4.50;;;;;;;;;;759597;183;915451;-63
2021/08/18 13:03:47;;;;;;;6.12;4.05;;;;;;;;;;743904;183;3523483;-64
2021/08/18 13:06:09;;;;;;;8.03;4.60;;;;;;;;;;755003;183;918240;-65
2021/08/18 13:08:36;;;;;;;7.33;3.97;;;;;;;;;;751779;184;919586;-64
2021/08/18 13:11:00;;;;;;;7.40;4.53;;;;;;;;;;755046;183;918303;-63
2021/08/18 13:13:26;;;;;;;6.53;4.33;;;;;;;;;;753796;183;918838;-63
2021/08/18 13:15:52;;;;;;;8.30;4.40;;;;;;;;;;759659;184;929017;-64
2021/08/18 13:18:18;;;;;;;7.33;4.50;;;;;;;;;;757788;183;919977;-63
2021/08/18 13:20:44;;;;;;;6.83;4.23;;;;;;;;;;756064;181;919329;-66
2021/08/18 13:23:10;;;;;;;7.10;4.13;;;;;;;;;;759818;183;918471;-63
2021/08/18 13:25:35;;;;;;;9.32;5.35;;;;;;;;;;754416;183;920211;-64
2021/08/18 13:28:02;;;;;;;7.20;4.43;;;;;;;;;;754550;183;920274;-64
2021/08/18 13:30:27;;;;;;;11.10;4.60;;;;;;;;;;758836;184;919014;-61
2021/08/18 13:32:53;;;;;;;6.50;3.80;;;;;;;;;;753659;184;920245;-63
2021/08/18 13:35:19;;;;;;;6.60;4.60;;;;;;;;;;753170;181;922108;-64
2021/08/18 13:37:45;;;;;;;6.80;5.30;;;;;;;;;;752665;184;918813;-64
2021/08/18 13:40:11;;;;;;;7.90;4.40;;;;;;;;;;759215;184;920269;-61
2021/08/18 13:42:37;;;;;;;7.30;5.03;;;;;;;;;;755880;184;919426;-63
2021/08/18 13:45:03;;;;;;;8.03;4.20;;;;;;;;;;754310;181;919490;-64
2021/08/18 13:47:29;;;;;;;6.50;4.20;;;;;;;;;;760879;184;918529;-64
2021/08/18 13:49:55;;;;;;;6.50;3.87;;;;;;;;;;759986;184;633695;-64
2021/08/18 13:52:20;;;;;;;7.30;4.10;;;;;;;;;;754934;181;918943;-64
2021/08/18 13:54:46;;;;;;;8.30;3.83;;;;;;;;;;758596;184;919375;-64
2021/08/18 13:57:12;;;;;;;6.60;3.90;;;;;;;;;;755317;184;921957;-63
2021/08/18 13:59:38;;;;;;;7.28;4.47;;;;;;;;;;755094;184;919201;-63
2021/08/18 14:02:04;;;;;;;5.37;3.60;;;;;;;;;;754264;184;918243;-65
2021/08/18 14:04:30;;;;;;;6.97;4.30;;;;;;;;;;761830;182;919873;-63
2021/08/18 14:06:55;;;;;;;6.30;3.90;;;;;;;;;;756676;183;918897;-67
2021/08/18 14:09:21;;;;;;;4.67;3.47;;;;;;;;;;755530;183;919067;-64
2021/08/18 14:11:47;;;;;;;6.23;4.27;;;;;;;;;;761148;182;918127;-64